createdAt,value
2023-05-02T00:02:05.663Z,10.60
2023-05-02T00:04:32.718Z,10.70
2023-05-02T00:06:59.721Z,10.70
2023-05-02T00:09:26.692Z,10.80
2023-05-02T00:11:53.597Z,10.80
2023-05-02T00:14:20.566Z,10.90
2023-05-02T00:16:47.439Z,10.90
2023-05-02T00:19:16.573Z,10.90
2023-05-02T00:21:43.479Z,10.90
2023-05-02T00:24:10.269Z,10.90
2023-05-02T00:26:37.178Z,10.90
2023-05-02T00:29:03.995Z,10.90
2023-05-02T00:31:30.871Z,10.90
2023-05-02T00:33:57.732Z,10.90
2023-05-02T00:36:24.641Z,10.90
2023-05-02T00:38:51.467Z,10.90
2023-05-02T00:41:18.596Z,10.90
2023-05-02T00:43:45.450Z,10.80
2023-05-02T00:46:13.406Z,10.80
2023-05-02T00:48:40.646Z,10.80
2023-05-02T00:51:08.962Z,10.80
2023-05-02T00:53:36.506Z,10.80
2023-05-02T00:56:03.777Z,10.90
2023-05-02T00:58:30.831Z,10.90
2023-05-02T01:01:30.299Z,11.00
2023-05-02T01:04:00.384Z,11.00
2023-05-02T01:06:42.830Z,11.00
2023-05-02T01:09:34.727Z,11.00
2023-05-02T01:12:20.616Z,11.10
2023-05-02T01:14:55.150Z,11.10
2023-05-02T01:17:29.215Z,11.10
2023-05-02T01:20:05.518Z,11.10
2023-05-02T01:22:34.314Z,11.10
2023-05-02T01:25:39.901Z,11.20
2023-05-02T01:28:33.695Z,11.20
2023-05-02T01:31:04.335Z,11.20
2023-05-02T01:33:34.246Z,11.20
2023-05-02T01:36:03.174Z,11.30
2023-05-02T01:38:31.424Z,11.30
2023-05-02T01:41:07.213Z,11.30
2023-05-02T01:43:36.561Z,11.30
2023-05-02T01:46:09.060Z,11.30
2023-05-02T01:48:37.391Z,11.30
2023-05-02T01:51:07.923Z,11.30
2023-05-02T01:53:35.775Z,11.30
2023-05-02T01:56:04.670Z,11.30
2023-05-02T01:58:35.792Z,11.30
2023-05-02T02:01:05.832Z,11.30
2023-05-02T02:03:32.970Z,11.20
2023-05-02T02:06:03.134Z,11.20
2023-05-02T02:08:30.033Z,11.20
2023-05-02T02:11:08.633Z,11.20
2023-05-02T02:13:43.768Z,11.30
2023-05-02T02:16:19.010Z,11.30
2023-05-02T02:18:46.450Z,11.30
2023-05-02T02:21:19.069Z,11.30
2023-05-02T02:23:51.054Z,11.30
2023-05-02T02:26:21.370Z,11.30
2023-05-02T02:28:48.486Z,11.30
2023-05-02T02:31:15.665Z,11.30
2023-05-02T02:33:43.191Z,11.30
2023-05-02T02:36:30.251Z,11.30
2023-05-02T02:39:10.464Z,11.30
2023-05-02T02:41:47.725Z,11.30
2023-05-02T02:44:36.995Z,11.30
2023-05-02T02:47:23.511Z,11.30
2023-05-02T02:50:16.477Z,11.30
2023-05-02T02:52:52.990Z,11.30
2023-05-02T02:55:30.767Z,11.30
2023-05-02T02:58:06.344Z,11.30
2023-05-02T03:00:35.622Z,11.40
2023-05-02T03:03:02.872Z,11.40
2023-05-02T03:05:32.959Z,11.40
2023-05-02T03:08:00.992Z,11.40
2023-05-02T03:10:27.920Z,11.40
2023-05-02T03:12:57.446Z,11.40
2023-05-02T03:15:53.963Z,11.40
2023-05-02T03:18:27.507Z,11.50
2023-05-02T03:20:54.763Z,11.40
2023-05-02T03:23:22.093Z,11.40
2023-05-02T03:25:50.743Z,11.40
2023-05-02T03:28:21.973Z,11.40
2023-05-02T03:30:50.220Z,11.40
2023-05-02T03:33:17.150Z,11.40
2023-05-02T03:35:46.113Z,11.40
2023-05-02T03:38:13.347Z,11.40
2023-05-02T03:40:40.496Z,11.40
2023-05-02T03:43:11.498Z,11.40
2023-05-02T03:45:38.799Z,11.30
2023-05-02T03:48:06.214Z,11.30
2023-05-02T03:50:33.131Z,11.30
2023-05-02T03:53:00.481Z,11.30
2023-05-02T03:55:43.712Z,11.30
2023-05-02T03:58:17.051Z,11.30
2023-05-02T04:00:45.412Z,11.40
2023-05-02T04:03:13.839Z,11.30
2023-05-02T04:05:43.359Z,11.40
2023-05-02T04:08:11.977Z,11.30
2023-05-02T04:10:39.232Z,11.40
2023-05-02T04:13:08.984Z,11.30
2023-05-02T04:15:38.748Z,11.30
2023-05-02T04:18:07.995Z,11.30
2023-05-02T04:20:36.331Z,11.30
2023-05-02T04:23:03.157Z,11.30
2023-05-02T04:25:30.849Z,11.30
2023-05-02T04:28:02.468Z,11.30
2023-05-02T04:30:29.599Z,11.30
2023-05-02T04:33:02.943Z,11.30
2023-05-02T04:35:33.565Z,11.30
2023-05-02T04:38:01.532Z,11.30
2023-05-02T04:40:29.255Z,11.30
2023-05-02T04:43:01.760Z,11.20
2023-05-02T04:45:36.845Z,11.20
2023-05-02T04:48:07.791Z,11.20
2023-05-02T04:50:34.700Z,11.20
2023-05-02T04:53:01.714Z,11.10
2023-05-02T04:55:28.867Z,11.10
2023-05-02T04:57:55.928Z,11.10
2023-05-02T05:00:23.077Z,11.10
2023-05-02T05:02:50.106Z,11.10
2023-05-02T05:05:17.214Z,11.00
2023-05-02T05:07:45.413Z,11.00
2023-05-02T05:10:12.419Z,11.00
2023-05-02T05:12:46.219Z,11.00
2023-05-02T05:15:14.193Z,11.00
2023-05-02T05:17:45.256Z,11.00
2023-05-02T05:20:12.604Z,11.00
2023-05-02T05:22:41.431Z,10.90
2023-05-02T05:25:10.264Z,10.90
2023-05-02T05:27:38.020Z,10.90
2023-05-02T05:30:08.847Z,10.90
2023-05-02T05:32:40.978Z,10.80
2023-05-02T05:35:12.634Z,10.80
2023-05-02T05:37:40.782Z,10.80
2023-05-02T05:40:11.186Z,10.80
2023-05-02T05:42:40.564Z,10.80
2023-05-02T05:45:13.954Z,10.80
2023-05-02T05:47:40.936Z,10.80
2023-05-02T05:50:08.970Z,10.80
2023-05-02T05:52:37.410Z,10.90
2023-05-02T05:55:04.929Z,10.90
2023-05-02T05:57:32.413Z,10.90
2023-05-02T05:59:59.603Z,10.90
2023-05-02T06:02:27.199Z,11.00
2023-05-02T06:04:55.638Z,11.00
2023-05-02T06:07:24.926Z,11.00
2023-05-02T06:09:51.751Z,11.00
2023-05-02T06:12:18.718Z,11.10
2023-05-02T06:14:46.360Z,11.00
2023-05-02T06:17:14.384Z,11.10
2023-05-02T06:19:41.349Z,11.10
2023-05-02T06:22:08.284Z,11.20
2023-05-02T06:24:35.170Z,11.20
2023-05-02T06:27:02.412Z,11.20
2023-05-02T06:29:29.427Z,11.20
2023-05-02T06:31:57.120Z,11.20
2023-05-02T06:34:24.141Z,11.20
2023-05-02T06:36:56.808Z,11.20
2023-05-02T06:39:23.596Z,11.20
2023-05-02T06:41:50.495Z,11.10
2023-05-02T06:44:18.499Z,11.00
2023-05-02T06:46:45.583Z,11.00
2023-05-02T06:49:12.505Z,10.90
2023-05-02T06:51:39.550Z,10.80
2023-05-02T06:54:06.455Z,10.80
2023-05-02T06:56:33.509Z,10.80
2023-05-02T06:59:00.728Z,10.80
2023-05-02T07:01:34.665Z,10.80
2023-05-02T07:04:07.714Z,10.70
2023-05-02T07:07:26.852Z,10.70
2023-05-02T07:09:53.754Z,10.80
2023-05-02T07:12:25.067Z,10.80
2023-05-02T07:14:57.406Z,10.80
2023-05-02T07:17:25.432Z,10.80
2023-05-02T07:19:53.311Z,10.80
2023-05-02T07:22:21.211Z,10.90
2023-05-02T07:24:47.974Z,10.90
2023-05-02T07:27:14.895Z,11.00
2023-05-02T07:29:42.642Z,11.00
2023-05-02T07:32:09.636Z,11.00
2023-05-02T07:34:36.647Z,11.00
2023-05-02T07:37:03.475Z,11.10
2023-05-02T07:39:32.723Z,11.20
2023-05-02T07:41:59.568Z,11.20
2023-05-02T07:44:26.353Z,11.20
2023-05-02T07:46:53.417Z,11.20
2023-05-02T07:49:20.636Z,11.20
2023-05-02T07:51:47.788Z,11.20
2023-05-02T07:54:19.826Z,11.20
2023-05-02T07:56:49.959Z,11.20
2023-05-02T07:59:16.839Z,11.20
2023-05-02T08:01:44.784Z,11.20
2023-05-02T08:04:11.937Z,11.20
2023-05-02T08:06:39.013Z,11.20
2023-05-02T08:09:05.994Z,11.20
2023-05-02T08:11:33.009Z,11.10
2023-05-02T08:13:59.989Z,11.10
2023-05-02T08:16:26.960Z,11.10
2023-05-02T08:18:53.909Z,11.00
2023-05-02T08:21:21.070Z,10.90
2023-05-02T08:23:49.613Z,10.90
2023-05-02T08:26:18.901Z,10.90
2023-05-02T08:28:45.922Z,10.90
2023-05-02T08:31:12.859Z,10.90
2023-05-02T08:33:39.729Z,10.90
2023-05-02T08:36:17.652Z,11.00
2023-05-02T08:38:46.530Z,11.10
2023-05-02T08:41:18.435Z,11.20
2023-05-02T08:43:49.553Z,11.20
2023-05-02T08:46:17.770Z,11.30
2023-05-02T08:48:48.103Z,11.40
2023-05-02T08:53:50.840Z,11.50
2023-05-02T08:56:17.952Z,11.60
2023-05-02T08:58:44.806Z,11.80
2023-05-02T09:01:22.690Z,12.00
2023-05-02T09:03:50.574Z,12.10
2023-05-02T09:06:20.668Z,12.20
2023-05-02T09:08:52.388Z,12.50
2023-05-02T09:11:21.287Z,12.70
2023-05-02T09:13:52.593Z,12.90
2023-05-02T09:16:25.788Z,13.00
2023-05-02T09:18:59.356Z,13.20
2023-05-02T09:21:40.196Z,13.30
2023-05-02T09:24:19.317Z,13.50
2023-05-02T09:26:58.719Z,13.90
2023-05-02T09:29:35.748Z,14.00
2023-05-02T09:32:04.562Z,14.00
2023-05-02T09:34:31.714Z,14.10
2023-05-02T09:36:58.751Z,14.10
2023-05-02T09:39:30.931Z,14.10
2023-05-02T09:41:59.271Z,14.10
2023-05-02T09:44:36.851Z,14.00
2023-05-02T09:47:03.917Z,13.90
2023-05-02T09:49:46.963Z,13.80
2023-05-02T09:52:23.537Z,13.70
2023-05-02T09:54:53.339Z,13.60
2023-05-02T09:57:20.578Z,13.60
2023-05-02T09:59:58.621Z,13.50
2023-05-02T10:02:26.388Z,13.40
2023-05-02T10:04:57.860Z,13.30
2023-05-02T10:07:26.416Z,13.20
2023-05-02T10:09:58.356Z,13.20
2023-05-02T10:12:30.535Z,13.20
2023-05-02T10:15:04.435Z,13.20
2023-05-02T10:17:39.093Z,13.20
2023-05-02T10:20:08.123Z,13.20
2023-05-02T10:27:07.816Z,13.10
2023-05-02T10:29:36.141Z,13.10
2023-05-02T10:32:05.550Z,13.10
2023-05-02T10:34:34.084Z,13.00
2023-05-02T10:37:02.115Z,13.10
2023-05-02T10:39:30.280Z,13.20
2023-05-02T10:42:02.090Z,13.30
2023-05-02T10:44:37.501Z,13.40
2023-05-02T10:47:26.518Z,13.60
2023-05-02T10:50:00.357Z,13.80
2023-05-02T10:52:38.567Z,14.00
2023-05-02T10:55:19.374Z,14.20
2023-05-02T10:58:01.883Z,14.40
2023-05-02T11:00:34.627Z,14.60
2023-05-02T11:03:02.490Z,14.70
2023-05-02T11:05:30.361Z,14.80
2023-05-02T11:08:15.735Z,14.80
2023-05-02T11:10:43.465Z,14.70
2023-05-02T11:13:10.429Z,14.50
2023-05-02T11:15:40.159Z,14.50
2023-05-02T11:18:08.940Z,14.30
2023-05-02T11:20:39.505Z,14.10
2023-05-02T11:23:15.513Z,14.00
2023-05-02T11:25:51.062Z,14.00
2023-05-02T11:28:36.585Z,14.00
2023-05-02T11:31:08.737Z,14.10
2023-05-02T11:33:35.802Z,14.20
2023-05-02T11:36:03.399Z,14.40
2023-05-02T11:38:38.841Z,14.50
2023-05-02T11:41:05.991Z,14.70
2023-05-02T11:43:32.960Z,14.90
2023-05-02T11:46:02.587Z,15.00
2023-05-02T11:48:31.473Z,15.20
2023-05-02T11:51:03.683Z,15.20
2023-05-02T11:53:31.389Z,15.10
2023-05-02T11:56:04.464Z,15.20
2023-05-02T11:58:33.473Z,15.30
2023-05-02T12:01:16.315Z,15.30
2023-05-02T12:03:43.970Z,15.40
2023-05-02T12:06:18.719Z,15.50
2023-05-02T12:08:46.300Z,15.50
2023-05-02T12:11:15.860Z,15.60
2023-05-02T12:13:49.686Z,15.60
2023-05-02T12:16:17.932Z,15.60
2023-05-02T12:18:47.388Z,15.50
2023-05-02T12:21:15.236Z,15.60
2023-05-02T12:23:42.610Z,15.90
2023-05-02T12:26:21.946Z,16.40
2023-05-02T12:28:57.066Z,16.90
2023-05-02T12:31:24.983Z,17.50
2023-05-02T12:33:55.213Z,17.40
2023-05-02T12:36:22.353Z,17.40
2023-05-02T12:38:56.936Z,17.20
2023-05-02T12:41:38.128Z,17.00
2023-05-02T12:44:07.556Z,16.90
2023-05-02T12:46:34.597Z,17.30
2023-05-02T12:49:09.541Z,17.60
2023-05-02T12:51:37.113Z,17.80
2023-05-02T12:54:05.069Z,18.30
2023-05-02T12:56:43.576Z,18.30
2023-05-02T12:59:32.832Z,18.30
2023-05-02T13:02:00.590Z,18.20
2023-05-02T13:04:40.207Z,18.20
2023-05-02T13:07:07.917Z,18.00
2023-05-02T13:09:34.769Z,18.10
2023-05-02T13:12:03.484Z,18.10
2023-05-02T13:14:30.759Z,18.30
2023-05-02T13:16:57.759Z,18.40
2023-05-02T13:19:24.731Z,18.50
2023-05-02T13:21:51.569Z,18.50
2023-05-02T13:24:18.525Z,18.60
2023-05-02T13:26:46.503Z,18.60
2023-05-02T13:29:13.404Z,18.70
2023-05-02T13:31:40.311Z,18.70
2023-05-02T13:34:07.218Z,18.70
2023-05-02T13:36:34.943Z,18.70
2023-05-02T13:39:01.952Z,18.70
2023-05-02T13:41:28.986Z,18.90
2023-05-02T13:43:56.814Z,18.70
2023-05-02T13:46:23.979Z,18.40
2023-05-02T13:48:50.992Z,18.20
2023-05-02T13:51:17.932Z,18.10
2023-05-02T13:53:44.732Z,18.10
2023-05-02T13:56:11.568Z,18.30
2023-05-02T13:58:38.922Z,18.60
2023-05-02T14:01:05.938Z,18.80
2023-05-02T14:03:32.951Z,19.20
2023-05-02T14:06:00.074Z,19.30
2023-05-02T14:08:27.717Z,19.40
2023-05-02T14:10:54.627Z,19.50
2023-05-02T14:13:21.558Z,19.70
2023-05-02T14:15:48.547Z,20.00
2023-05-02T14:18:16.634Z,20.10
2023-05-02T14:20:44.133Z,20.10
2023-05-02T14:23:11.132Z,20.00
2023-05-02T14:25:38.180Z,19.70
2023-05-02T14:28:05.828Z,19.40
2023-05-02T14:30:32.706Z,19.60
2023-05-02T14:32:59.803Z,19.50
2023-05-02T14:35:26.788Z,19.60
2023-05-02T14:37:53.694Z,19.80
2023-05-02T14:40:20.879Z,20.00
2023-05-02T14:42:48.317Z,19.90
2023-05-02T14:45:15.317Z,19.60
2023-05-02T14:47:44.009Z,19.50
2023-05-02T14:50:11.582Z,19.50
2023-05-02T14:52:38.480Z,19.30
2023-05-02T14:55:06.567Z,19.10
2023-05-02T14:57:33.553Z,19.10
2023-05-02T15:00:01.319Z,19.30
2023-05-02T15:02:28.586Z,19.50
2023-05-02T15:04:55.748Z,19.70
2023-05-02T15:07:22.764Z,19.50
2023-05-02T15:09:49.682Z,19.50
2023-05-02T15:12:16.608Z,19.40
2023-05-02T15:14:43.515Z,19.40
2023-05-02T15:17:10.473Z,19.30
2023-05-02T15:19:37.506Z,19.10
2023-05-02T15:22:04.306Z,19.00
2023-05-02T15:24:31.301Z,19.00
2023-05-02T15:26:58.340Z,19.10
2023-05-02T15:29:25.363Z,19.10
2023-05-02T15:31:52.243Z,19.10
2023-05-02T15:34:19.208Z,19.20
2023-05-02T15:36:46.125Z,19.20
2023-05-02T15:39:12.967Z,19.10
2023-05-02T15:41:39.850Z,19.00
2023-05-02T15:44:06.686Z,18.80
2023-05-02T15:46:33.618Z,18.80
2023-05-02T15:49:00.677Z,18.70
2023-05-02T15:51:27.633Z,18.70
2023-05-02T15:53:55.408Z,18.60
2023-05-02T15:56:22.380Z,18.50
2023-05-02T15:58:49.486Z,18.40
2023-05-02T16:01:16.451Z,18.40
2023-05-02T16:03:43.485Z,18.30
2023-05-02T16:06:10.517Z,18.20
2023-05-02T16:08:37.349Z,18.20
2023-05-02T16:11:04.392Z,18.00
2023-05-02T16:13:31.552Z,17.90
2023-05-02T16:15:58.572Z,17.90
2023-05-02T16:18:28.334Z,17.90
2023-05-02T16:20:57.015Z,17.90
2023-05-02T16:23:26.044Z,17.80
2023-05-02T16:26:02.837Z,17.90
2023-05-02T16:28:29.781Z,18.00
2023-05-02T16:30:56.916Z,18.00
2023-05-02T16:33:23.949Z,18.00
2023-05-02T16:36:02.036Z,17.90
2023-05-02T16:38:29.114Z,17.90
2023-05-02T16:40:56.250Z,17.70
2023-05-02T16:43:23.608Z,17.60
2023-05-02T16:46:05.899Z,17.50
2023-05-02T16:48:34.136Z,17.30
2023-05-02T16:51:03.282Z,17.10
2023-05-02T16:53:31.969Z,17.00
2023-05-02T16:55:59.592Z,16.90
2023-05-02T16:58:29.019Z,16.80
2023-05-02T17:00:56.392Z,16.60
2023-05-02T17:03:23.402Z,16.50
2023-05-02T17:05:50.331Z,16.40
2023-05-02T17:08:17.281Z,16.20
2023-05-02T17:10:49.708Z,16.00
2023-05-02T17:13:16.622Z,15.90
2023-05-02T17:15:44.691Z,15.80
2023-05-02T17:18:11.750Z,15.70
2023-05-02T17:20:39.146Z,15.70
2023-05-02T17:23:06.030Z,15.70
2023-05-02T17:25:33.215Z,15.50
2023-05-02T17:28:00.258Z,15.40
2023-05-02T17:30:27.185Z,15.30
2023-05-02T17:32:54.254Z,15.20
2023-05-02T17:35:21.290Z,15.00
2023-05-02T17:37:48.096Z,14.90
2023-05-02T17:40:15.017Z,14.90
2023-05-02T17:42:48.895Z,14.80
2023-05-02T17:45:16.584Z,14.70
2023-05-02T17:47:43.503Z,14.70
2023-05-02T17:50:11.165Z,14.60
2023-05-02T17:52:38.741Z,14.50
2023-05-02T17:55:06.828Z,14.40
2023-05-02T17:57:34.224Z,14.30
2023-05-02T18:00:04.105Z,14.20
2023-05-02T18:02:33.432Z,14.10
2023-05-02T18:05:01.610Z,14.00
2023-05-02T18:07:29.956Z,14.00
2023-05-02T18:09:57.420Z,13.90
2023-05-02T18:12:24.374Z,13.80
2023-05-02T18:14:52.561Z,13.80
2023-05-02T18:17:20.773Z,13.80
2023-05-02T18:19:50.967Z,13.70
2023-05-02T18:22:21.164Z,13.60
2023-05-02T18:24:49.639Z,13.60
2023-05-02T18:27:17.600Z,13.60
2023-05-02T18:29:44.749Z,13.50
2023-05-02T18:32:11.697Z,13.40
2023-05-02T18:34:39.170Z,13.40
2023-05-02T18:37:06.844Z,13.30
2023-05-02T18:39:34.561Z,13.30
2023-05-02T18:42:16.817Z,13.20
2023-05-02T18:44:44.237Z,13.10
2023-05-02T18:47:11.394Z,13.10
2023-05-02T18:49:38.302Z,13.00
2023-05-02T18:52:05.346Z,13.00
2023-05-02T18:54:33.435Z,12.90
2023-05-02T18:57:00.355Z,12.90
2023-05-02T18:59:27.303Z,12.80
2023-05-02T19:01:54.266Z,12.70
2023-05-02T19:04:21.617Z,12.70
2023-05-02T19:06:49.149Z,12.60
2023-05-02T19:09:17.777Z,12.50
2023-05-02T19:11:44.637Z,12.50
2023-05-02T19:14:11.923Z,12.40
2023-05-02T19:16:40.449Z,12.20
2023-05-02T19:19:07.838Z,12.20
2023-05-02T19:21:34.835Z,12.20
2023-05-02T19:24:01.934Z,12.10
2023-05-02T19:26:28.915Z,12.00
2023-05-02T19:28:55.846Z,11.90
2023-05-02T19:31:23.605Z,11.80
2023-05-02T19:33:54.796Z,11.80
2023-05-02T19:36:27.343Z,11.70
2023-05-02T19:38:57.833Z,11.60
2023-05-02T19:41:25.054Z,11.60
2023-05-02T19:43:52.794Z,11.50
2023-05-02T19:46:20.157Z,11.40
2023-05-02T19:48:47.046Z,11.40
2023-05-02T19:51:14.067Z,11.30
2023-05-02T19:53:41.058Z,11.20
2023-05-02T19:56:08.314Z,11.20
2023-05-02T19:58:35.429Z,11.10
2023-05-02T20:01:03.190Z,11.10
2023-05-02T20:03:30.256Z,11.00
2023-05-02T20:05:58.441Z,11.00
2023-05-02T20:08:27.925Z,10.90
2023-05-02T20:10:56.243Z,10.80
2023-05-02T20:13:23.651Z,10.80
2023-05-02T20:15:52.202Z,10.70
2023-05-02T20:18:19.750Z,10.70
2023-05-02T20:20:46.703Z,10.60
2023-05-02T20:23:14.312Z,10.60
2023-05-02T20:25:42.593Z,10.60
2023-05-02T20:28:10.295Z,10.50
2023-05-02T20:30:39.020Z,10.50
2023-05-02T20:33:14.652Z,10.40
2023-05-02T20:35:42.784Z,10.30
2023-05-02T20:38:09.855Z,10.30
2023-05-02T20:40:40.593Z,10.20
2023-05-02T20:43:07.760Z,10.20
2023-05-02T20:45:34.727Z,10.10
2023-05-02T20:48:01.610Z,10.10
2023-05-02T20:50:28.700Z,10.00
2023-05-02T20:52:56.446Z,10.00
2023-05-02T20:55:24.503Z,10.00
2023-05-02T20:57:52.854Z,9.90
2023-05-02T21:00:22.663Z,9.80
2023-05-02T21:02:49.780Z,9.80
2023-05-02T21:05:16.876Z,9.70
2023-05-02T21:07:44.697Z,9.70
2023-05-02T21:10:11.854Z,9.60
2023-05-02T21:12:39.365Z,9.60
2023-05-02T21:15:07.845Z,9.60
2023-05-02T21:17:34.925Z,9.50
2023-05-02T21:20:02.196Z,9.50
2023-05-02T21:22:29.442Z,9.50
2023-05-02T21:24:56.401Z,9.40
2023-05-02T21:27:23.458Z,9.40
2023-05-02T21:29:50.770Z,9.30
2023-05-02T21:32:17.602Z,9.30
2023-05-02T21:34:44.411Z,9.30
2023-05-02T21:37:11.282Z,9.20
2023-05-02T21:39:39.033Z,9.20
2023-05-02T21:42:06.103Z,9.10
2023-05-02T21:44:33.151Z,9.10
2023-05-02T21:47:00.074Z,9.00
2023-05-02T21:49:30.171Z,8.90
2023-05-02T21:51:58.239Z,8.90
2023-05-02T21:54:25.237Z,8.80
2023-05-02T21:56:54.209Z,8.70
2023-05-02T21:59:21.209Z,8.60
2023-05-02T22:01:48.177Z,8.60
2023-05-02T22:04:15.428Z,8.40
2023-05-02T22:06:42.934Z,8.40
2023-05-02T22:09:10.213Z,8.30
2023-05-02T22:11:37.333Z,8.30
2023-05-02T22:14:04.185Z,8.20
2023-05-02T22:16:31.150Z,8.20
2023-05-02T22:18:58.116Z,8.10
2023-05-02T22:21:25.124Z,8.10
2023-05-02T22:23:51.931Z,8.00
2023-05-02T22:26:18.803Z,8.00
2023-05-02T22:28:45.768Z,8.00
2023-05-02T22:31:12.711Z,8.00
2023-05-02T22:33:39.766Z,7.90
2023-05-02T22:36:07.073Z,7.80
2023-05-02T22:38:34.220Z,7.80
2023-05-02T22:41:01.588Z,7.80
2023-05-02T22:43:28.588Z,7.80
2023-05-02T22:45:55.915Z,7.70
2023-05-02T22:48:22.849Z,7.70
2023-05-02T22:50:49.894Z,7.60
2023-05-02T22:53:16.848Z,7.60
2023-05-02T22:55:43.723Z,7.50
2023-05-02T22:58:11.597Z,7.50
2023-05-02T23:00:38.633Z,7.40
2023-05-02T23:03:05.639Z,7.40
2023-05-02T23:05:32.566Z,7.30
2023-05-02T23:07:59.557Z,7.30
2023-05-02T23:10:26.476Z,7.30
2023-05-02T23:12:53.410Z,7.20
2023-05-02T23:15:20.791Z,7.10
2023-05-02T23:17:47.688Z,7.10
2023-05-02T23:20:19.290Z,7.00
2023-05-02T23:22:46.546Z,7.00
2023-05-02T23:25:15.509Z,7.00
2023-05-02T23:27:42.528Z,7.00
2023-05-02T23:30:09.963Z,7.00
2023-05-02T23:32:37.845Z,7.00
2023-05-02T23:35:05.798Z,7.00
2023-05-02T23:37:33.258Z,6.90
2023-05-02T23:40:00.889Z,6.90
2023-05-02T23:42:33.771Z,6.80
2023-05-02T23:45:01.921Z,6.80
2023-05-02T23:47:28.798Z,6.80
2023-05-02T23:49:56.262Z,6.70
2023-05-02T23:52:23.147Z,6.70
2023-05-02T23:54:52.182Z,6.70
2023-05-02T23:57:19.050Z,6.70
2023-05-02T23:59:45.962Z,6.60
